M I D A S
Marine Information and Data Acquisition System
Tripno 307 of the Zeeleeuw from 2002-08-21 06:54:07 to 2002-08-21 15:43:45
Back to CruiseResearch ActivitiesStationsMapUnderway DataData graphs

EquipmentUnitsComment
TimeDGPSUTC
LatitudeDGPSDM.mWGS84
LongitudeDGPSDM.mWGS84
TemperatureSBE03/SBE38deg celciusITS90
ConductivitySBE21S/mITS90
SalinitySBE21 Practical Salinity Units
ChlorophylAChelsea fluorimeterg/lCalibrated in Aceton
Missing or incorrect values are displayed as -999
Sea surface data collected by the RV Zeeleeuw from 2002-08-21 06:54:07 to 2002-08-21 15:43:45
                                                                                    Next 1000 lines
Time Latitude Longitude Temperature Conductivity Salinity ChlorophylA
2002-08-21 06:54:16 51°13.662 2°55.956 22.598404 1.801997 11.098963  
2002-08-21 06:54:21 51°13.662 2°55.956 22.59224 2.082089 13.01581  
2002-08-21 06:54:27 51°13.663 2°55.955 22.60055 1.991465 12.415349  
2002-08-21 06:54:31 51°13.663 2°55.954 22.60055 1.991465 12.415349  
2002-08-21 06:54:36 51°13.664 2°55.952 22.590094 1.930467 12.010488  
2002-08-21 06:54:41 51°13.664 2°55.95 22.59302 1.904014 11.838453  
2002-08-21 06:54:46 51°13.665 2°55.948 22.594152 1.888373 11.73712  
2002-08-21 06:54:51 51°13.666 2°55.945 22.592162 1.887744 11.735551  
2002-08-21 06:54:57 51°13.667 2°55.94 22.589938 1.883125 11.705736  
2002-08-21 06:55:02 51°13.668 2°55.936 22.589938 1.883125 11.705736  
2002-08-21 06:55:07 51°13.669 2°55.931 22.584241 1.8826 11.704155  
2002-08-21 06:55:12 51°13.67 2°55.925 22.587168 1.878087 11.674868  
2002-08-21 06:55:17 51°13.671 2°55.92 22.482602 1.875988 11.661559  
2002-08-21 06:55:22 51°13.672 2°55.913 22.388917 1.887429 11.739525  
2002-08-21 06:55:27 51°13.673 2°55.907 22.307842 1.889318 11.753576  
2002-08-21 06:55:32 51°13.674 2°55.9 22.307842 1.889318 11.753576  
2002-08-21 06:55:37 51°13.675 2°55.894 22.25455 1.894672 11.790734  
2002-08-21 06:55:42 51°13.676 2°55.887 22.2113 1.899605 11.825425  
2002-08-21 06:55:47 51°13.677 2°55.88 22.187449 1.977292 12.358533  
2002-08-21 06:55:52 51°13.678 2°55.872 22.173558 2.119587 13.342739  
2002-08-21 06:55:57 51°13.679 2°55.865 22.145454 2.397929 15.295806  
2002-08-21 06:56:02 51°13.68 2°55.857 22.145454 2.397929 15.295806  
2002-08-21 06:56:07 51°13.681 2°55.849 22.147338 2.653218 17.11462  
2002-08-21 06:56:12 51°13.681 2°55.841 22.143177 2.770294 17.971851  
2002-08-21 06:56:17 51°13.682 2°55.833 22.151067 2.855726 18.598908  
2002-08-21 06:56:22 51°13.682 2°55.824 22.157113 2.912233 19.023645  
2002-08-21 06:56:27 51°13.683 2°55.816 22.135874 2.954433 19.337871  
2002-08-21 06:56:32 51°13.683 2°55.807 22.135874 2.954433 19.337871  
2002-08-21 06:56:37 51°13.683 2°55.799 22.133793 2.98906 19.596827  
2002-08-21 06:56:42 51°13.683 2°55.79 22.137248 3.008426 19.741217  
2002-08-21 06:56:47 51°13.683 2°55.781 22.139761 2.98264 19.560543  
2002-08-21 06:56:52 51°13.683 2°55.773 22.144943 2.958223 19.384123  
2002-08-21 06:56:57 51°13.683 2°55.764 22.141763 2.924862 19.147966  
2002-08-21 06:57:01 51°13.682 2°55.758 22.141763 2.924862 19.147966  
2002-08-21 06:57:06 51°13.681 2°55.751 22.140742 2.911602 19.053708  
2002-08-21 06:57:11 51°13.68 2°55.744 22.142784 2.880665 18.833857  
2002-08-21 06:57:16 51°13.68 2°55.739 22.133793 2.8451 18.579586  
2002-08-21 06:57:21 51°13.679 2°55.735 22.141096 2.805118 18.292053  
2002-08-21 06:57:25 51°13.679 2°55.733 22.138387 2.771978 18.05539  
2002-08-21 06:57:31 51°13.678 2°55.73 22.138387 2.771978 18.05539  
2002-08-21 06:57:37 51°13.679 2°55.729 22.133675 2.755041 17.934282  
2002-08-21 06:57:41 51°13.679 2°55.729 22.131633 2.736211 17.800025  
2002-08-21 06:57:46 51°13.679 2°55.729 22.135363 2.710018 17.614447  
2002-08-21 06:57:51 51°13.68 2°55.731 22.143216 2.674782 17.364091  
2002-08-21 06:57:56 51°13.681 2°55.732 22.142627 2.630714 17.050798  
2002-08-21 06:58:01 51°13.683 2°55.734 22.142627 2.630714 17.050798  
2002-08-21 06:58:05 51°13.684 2°55.735 22.144158 2.587596 16.744883  
2002-08-21 06:58:11 51°13.687 2°55.736 22.143451 2.554367 16.511395  
2002-08-21 06:58:16 51°13.69 2°55.737 22.148594 2.525557 16.307703  
2002-08-21 06:58:21 51°13.693 2°55.737 22.152677 2.479506 15.981548  
2002-08-21 06:58:26 51°13.696 2°55.737 22.151539 2.420846 15.567858  
2002-08-21 06:58:31 51°13.7 2°55.736 22.151539 2.420846 15.567858  
2002-08-21 06:58:36 51°13.704 2°55.735 22.15252 2.374807 15.243725  
2002-08-21 06:58:41 51°13.708 2°55.732 22.155935 2.326987 14.907638  
2002-08-21 06:58:46 51°13.713 2°55.729 22.155071 2.292938 14.669333  
2002-08-21 06:58:51 51°13.718 2°55.725 22.156014 2.273183 14.530352  
2002-08-21 06:58:56 51°13.723 2°55.72 22.160802 2.247965 14.353636  
2002-08-21 06:59:01 51°13.728 2°55.716 22.160802 2.247965 14.353636  
2002-08-21 06:59:05 51°13.733 2°55.712 22.162372 2.236092 14.27039  
2002-08-21 06:59:11 51°13.74 2°55.706 22.16877 2.228737 14.218684  
2002-08-21 06:59:16 51°13.746 2°55.701 22.181838 2.223904 14.185007  
2002-08-21 06:59:21 51°13.753 2°55.695 22.198983 2.207935 14.073791  
2002-08-21 06:59:25 51°13.758 2°55.691 22.206005 2.185873 13.919647  
2002-08-21 06:59:32 51°13.768 2°55.683 22.206005 2.185873 13.919647  
2002-08-21 06:59:36 51°13.774 2°55.679 22.226125 2.13461 13.562847  
2002-08-21 06:59:41 51°13.782 2°55.673 22.232282 2.084719 13.216546  
2002-08-21 06:59:46 51°13.79 2°55.668 22.240359 2.02948 12.83354  
2002-08-21 06:59:51 51°13.798 2°55.662 22.246867 1.979289 12.485895  
2002-08-21 06:59:56 51°13.806 2°55.657 22.258157 1.940023 12.21309  
2002-08-21 07:00:01 51°13.814 2°55.652 22.258157 1.940023 12.21309  
2002-08-21 07:00:06 51°13.823 2°55.646 22.275441 1.919657 12.070917  
2002-08-21 07:00:11 51°13.831 2°55.641 22.280261 1.91 12.001278  
2002-08-21 07:00:16 51°13.84 2°55.635 22.287862 1.901917 11.943037  
2002-08-21 07:00:21 51°13.848 2°55.63 22.290135 1.895409 11.895792  
2002-08-21 07:00:27 51°13.859 2°55.623 22.297461 1.893624 11.881395  
2002-08-21 07:00:31 51°13.866 2°55.619 22.297461 1.893624 11.881395  
2002-08-21 07:00:36 51°13.875 2°55.614 22.298166 1.892365 11.870773  
2002-08-21 07:00:41 51°13.884 2°55.608 22.304473 1.885437 11.820368  
2002-08-21 07:00:45 51°13.891 2°55.603 22.303768 1.875465 11.750162  
2002-08-21 07:00:52 51°13.904 2°55.595 22.308625 1.866753 11.688426  
2002-08-21 07:00:57 51°13.913 2°55.589 22.288136 1.868958 11.701818  
2002-08-21 07:01:01 51°13.92 2°55.584 22.288136 1.868958 11.701818  
2002-08-21 07:01:05 51°13.927 2°55.579 22.274147 1.868643 11.698408  
2002-08-21 07:01:11 51°13.938 2°55.572 22.252708 1.864129 11.666942  
2002-08-21 07:01:16 51°13.947 2°55.566 22.221655 1.85164 11.580655  
2002-08-21 07:01:21 51°13.957 2°55.561 22.192824 1.842509 11.518001  
2002-08-21 07:01:26 51°13.966 2°55.555 22.160645 1.851954 11.582261  
2002-08-21 07:01:32 51°13.977 2°55.548 22.160645 1.851954 11.582261  
2002-08-21 07:01:37 51°13.986 2°55.542 22.130219 1.897298 11.893248  
2002-08-21 07:01:41 51°13.993 2°55.538 22.100998 1.972149 12.408952  
2002-08-21 07:01:46 51°14.003 2°55.532 22.072433 2.053527 12.973077  
2002-08-21 07:01:51 51°14.012 2°55.527 22.051169 2.152676 13.665502  
2002-08-21 07:01:56 51°14.021 2°55.521 22.035758 2.270556 14.491532  
2002-08-21 07:02:01 51°14.03 2°55.515 22.035758 2.270556 14.491532  
2002-08-21 07:02:06 51°14.039 2°55.509 22.020303 2.373756 15.222159  
2002-08-21 07:02:11 51°14.048 2°55.503 22.019005 2.469939 15.907858  
2002-08-21 07:02:16 51°14.057 2°55.497 22.014561 2.581707 16.709606  
2002-08-21 07:02:21 51°14.066 2°55.491 22.010785 2.669418 17.344497  
2002-08-21 07:02:25 51°14.073 2°55.485 22.018298 2.744101 17.887814  
2002-08-21 07:02:31 51°14.084 2°55.476 22.018298 2.744101 17.887814  
2002-08-21 07:02:36 51°14.093 2°55.469 22.020933 2.813326 18.391473  
2002-08-21 07:02:41 51°14.101 2°55.461 22.021444 2.841839 18.603355  
2002-08-21 07:02:46 51°14.109 2°55.453 22.023449 2.851414 18.674874  
2002-08-21 07:02:52 51°14.12 2°55.444 22.017314 2.846153 18.639918  
2002-08-21 07:02:56 51°14.126 2°55.437 22.015308 2.826688 18.502476  
2002-08-21 07:03:01 51°14.135 2°55.429 22.015308 2.826688 18.502476  
2002-08-21 07:03:06 51°14.143 2°55.421 22.00756 2.787024 18.217733  
2002-08-21 07:03:11 51°14.151 2°55.412 21.998276 2.751571 17.962553  
2002-08-21 07:03:17 51°14.161 2°55.401 21.989621 2.715384 17.703661  
2002-08-21 07:03:21 51°14.168 2°55.393 21.976951 2.692874 17.541836  
2002-08-21 07:03:26 51°14.176 2°55.383 21.966443 2.686458 17.497615  
2002-08-21 07:03:31 51°14.184 2°55.373 21.966443 2.686458 17.497615  
2002-08-21 07:03:36 51°14.192 2°55.363 21.958531 2.678569 17.442061  
2002-08-21 07:03:41 51°14.2 2°55.353 21.954005 2.671312 17.392659  
2002-08-21 07:03:46 51°14.208 2°55.342 21.953296 2.671207 17.395165  
2002-08-21 07:03:52 51°14.217 2°55.328 21.951249 2.682566 17.479349  
2002-08-21 07:03:57 51°14.225 2°55.317 21.947864 2.704866 17.643822  
2002-08-21 07:04:01 51°14.231 2°55.308 21.947864 2.704866 17.643822  
2002-08-21 07:04:05 51°14.237 2°55.299 21.941013 2.739158 17.89287  
2002-08-21 07:04:11 51°14.246 2°55.285 21.937391 2.775241 18.154695  
2002-08-21 07:04:16 51°14.253 2°55.273 21.920891 2.801438 18.345881  
2002-08-21 07:04:21 51°14.26 2°55.262 21.910612 2.839735 18.622509  
2002-08-21 07:04:26 51°14.266 2°55.25 21.904191 2.878983 18.905902  
2002-08-21 07:04:31 51°14.273 2°55.238 21.904191 2.878983 18.905902  
2002-08-21 07:04:36 51°14.279 2°55.227 21.886856 2.911078 19.14047  
2002-08-21 07:04:41 51°14.285 2°55.214 21.875429 2.936124 19.322578  
2002-08-21 07:04:45 51°14.29 2°55.205 21.860413 2.968118 19.558626  
2002-08-21 07:04:52 51°14.298 2°55.187 21.851741 3.001797 19.807658  
2002-08-21 07:04:57 51°14.305 2°55.175 21.84429 3.022848 19.964061  
2002-08-21 07:05:01 51°14.309 2°55.165 21.84429 3.022848 19.964061  
2002-08-21 07:05:07 51°14.317 2°55.151 21.828636 3.041164 20.102634  
2002-08-21 07:05:12 51°14.322 2°55.138 21.815898 3.065479 20.283844  
2002-08-21 07:05:16 51°14.327 2°55.128 21.809824 3.089165 20.462638  
2002-08-21 07:05:21 51°14.333 2°55.116 21.803749 3.108535 20.608247  
2002-08-21 07:05:25 51°14.337 2°55.107 21.792269 3.119484 20.692788  
2002-08-21 07:05:32 51°14.345 2°55.089 21.792269 3.119484 20.692788  
2002-08-21 07:05:36 51°14.35 2°55.079 21.771198 3.143698 20.875122  
2002-08-21 07:05:41 51°14.356 2°55.067 21.756081 3.175599 21.114074  
2002-08-21 07:05:45 51°14.361 2°55.057 21.730339 3.200553 21.301788  
2002-08-21 07:05:51 51°14.37 2°55.041 21.723586 3.237933 21.581128  
2002-08-21 07:05:56 51°14.376 2°55.028 21.700203 3.27858 21.88509  
2002-08-21 07:06:01 51°14.384 2°55.015 21.700203 3.27858 21.88509  
2002-08-21 07:06:06 51°14.391 2°55.001 21.691077 3.321653 22.207594  
2002-08-21 07:06:11 51°14.399 2°54.987 21.68515 3.366519 22.547269  
2002-08-21 07:06:16 51°14.407 2°54.974 21.674085 3.430665 23.030449  
2002-08-21 07:06:21 51°14.415 2°54.962 21.646377 3.472064 23.348201  
2002-08-21 07:06:25 51°14.421 2°54.952 21.627872 3.515045 23.675936  
2002-08-21 07:06:32 51°14.433 2°54.935 21.627872 3.515045 23.675936  
2002-08-21 07:06:36 51°14.44 2°54.926 21.601055 3.546441 23.917196  
2002-08-21 07:06:41 51°14.45 2°54.915 21.559664 3.566459 24.073874  
2002-08-21 07:06:46 51°14.459 2°54.906 21.553211 3.580367 24.184686  
2002-08-21 07:06:51 51°14.468 2°54.898 21.534207 3.601334 24.351157  
2002-08-21 07:06:56 51°14.478 2°54.89 21.516545 3.62736 24.553874  
2002-08-21 07:07:01 51°14.488 2°54.881 21.516545 3.62736 24.553874  
2002-08-21 07:07:06 51°14.498 2°54.873 21.500977 3.661291 24.822162  
2002-08-21 07:07:12 51°14.51 2°54.862 21.486596 3.691745 25.063749  
2002-08-21 07:07:16 51°14.518 2°54.855 21.487428 3.736428 25.409509  
2002-08-21 07:07:21 51°14.528 2°54.846 21.465394 3.765306 25.642004  
2002-08-21 07:07:27 51°14.541 2°54.836 21.447992 3.801667 25.925481  
2002-08-21 07:07:31 51°14.549 2°54.829 21.447992 3.801667 25.925481  
2002-08-21 07:07:36 51°14.56 2°54.82 21.443591 3.861642 26.392792  
2002-08-21 07:07:41 51°14.57 2°54.812 21.432608 3.915192 26.809762  
2002-08-21 07:07:45 51°14.578 2°54.804 21.423288 3.987195 27.366916  
2002-08-21 07:07:51 51°14.59 2°54.794 21.421226 4.041598 27.789957  
2002-08-21 07:07:56 51°14.6 2°54.785 21.410596 4.095899 28.215114  
2002-08-21 07:08:01 51°14.609 2°54.776 21.410596 4.095899 28.215114  
2002-08-21 07:08:05 51°14.616 2°54.769 22.1151 4.150837 28.643116  
2002-08-21 07:08:11 51°14.627 2°54.759 21.915968 4.196288 29.001444  
2002-08-21 07:08:16 51°14.635 2°54.751 21.74558 4.231934 29.282621  
2002-08-21 07:08:21 51°14.644 2°54.742 21.839598 4.26948 29.578498  
2002-08-21 07:08:25 51°14.651 2°54.735 21.900212 4.290363 29.744136  
2002-08-21 07:08:31 51°14.661 2°54.725 21.900212 4.290363 29.744136  
2002-08-21 07:08:36 51°14.67 2°54.718 22.059188 4.315676 29.945192  
2002-08-21 07:08:41 51°14.678 2°54.711 21.962664 4.335084 30.103151  
2002-08-21 07:08:45 51°14.685 2°54.704 21.802724 4.359027 30.294062  
2002-08-21 07:08:51 51°14.695 2°54.696 21.797161 4.371474 30.396448  
2002-08-21 07:08:56 51°14.704 2°54.688 22.051287 4.386347 30.515812  
2002-08-21 07:09:01 51°14.712 2°54.681 22.051287 4.386347 30.515812  
2002-08-21 07:09:05 51°14.718 2°54.675 21.858403 4.393837 30.576429  
2002-08-21 07:09:11 51°14.728 2°54.666 21.793334 4.402381 30.645761  
2002-08-21 07:09:16 51°14.736 2°54.659 21.792861 4.407444 30.68659  
2002-08-21 07:09:21 51°14.744 2°54.653 21.888157 4.413035 30.732516  
2002-08-21 07:09:25 51°14.751 2°54.647 21.785443 4.421158 30.797168  
2002-08-21 07:09:31 51°14.763 2°54.64 21.785443 4.421158 30.797168  
2002-08-21 07:09:36 51°14.773 2°54.635 21.659264 4.42601 30.836892  
2002-08-21 07:09:41 51°14.785 2°54.631 22.168377 4.428331 30.854951  
2002-08-21 07:09:47 51°14.8 2°54.627 21.814675 4.430441 30.873345  
2002-08-21 07:09:51 51°14.81 2°54.625 21.907933 4.432023 30.886154  
2002-08-21 07:09:56 51°14.824 2°54.622 21.812151 4.435504 30.913746  
2002-08-21 07:10:01 51°14.838 2°54.619 21.812151 4.435504 30.913746  
2002-08-21 07:10:05 51°14.85 2°54.617 22.069682 4.438775 30.943165  
2002-08-21 07:10:11 51°14.868 2°54.616 21.711698 4.440568 30.957625  
2002-08-21 07:10:17 51°14.886 2°54.614 21.872158 4.443205 30.97965  
2002-08-21 07:10:21 51°14.899 2°54.613 21.869833 4.44521 30.997742  
2002-08-21 07:10:26 51°14.915 2°54.61 21.866443 4.445632 31.002021  
2002-08-21 07:10:31 51°14.93 2°54.606 21.866443 4.445632 31.002021  
2002-08-21 07:10:36 51°14.946 2°54.604 21.932863 4.445843 31.004657  
2002-08-21 07:10:41 51°14.962 2°54.601 22.030331 4.446898 31.013868  
2002-08-21 07:10:45 51°14.975 2°54.6 21.830017 4.447741 31.02094  
2002-08-21 07:10:52 51°14.997 2°54.595 22.055886 4.449746 31.03755  
2002-08-21 07:10:56 51°15.01 2°54.593 21.860492 4.450801 31.047759  
2002-08-21 07:11:01 51°15.026 2°54.59 21.860492 4.450801 31.047759  
2002-08-21 07:11:05 51°15.038 2°54.589 21.763343 4.449957 31.042673  
2002-08-21 07:11:11 51°15.057 2°54.586 21.793887 4.447742 31.026901  
2002-08-21 07:11:16 51°15.073 2°54.584 21.728522 4.447531 31.02476  
2002-08-21 07:11:21 51°15.089 2°54.581 22.017236 4.44848 31.034146  
2002-08-21 07:11:25 51°15.101 2°54.578 21.758252 4.447531 31.027741  
2002-08-21 07:11:31 51°15.12 2°54.574 21.758252 4.447531 31.027741  
2002-08-21 07:11:36 51°15.136 2°54.571 22.016488 4.448797 31.040093  
2002-08-21 07:11:41 51°15.151 2°54.566 21.788442 4.448691 31.03927  
2002-08-21 07:11:45 51°15.164 2°54.564 21.917819 4.449008 31.043726  
2002-08-21 07:11:51 51°15.183 2°54.558 21.792782 4.449113 31.044051  
2002-08-21 07:11:56 51°15.199 2°54.554 21.695857 4.449852 31.051797  
2002-08-21 07:12:01 51°15.215 2°54.548 21.695857 4.449852 31.051797  
2002-08-21 07:12:05 51°15.228 2°54.544 21.858482 4.449957 31.053116  
2002-08-21 07:12:11 51°15.248 2°54.538 21.730655 4.450063 31.054934  
2002-08-21 07:12:16 51°15.263 2°54.533 21.667683 4.450801 31.060193  
2002-08-21 07:12:21 51°15.279 2°54.527 21.762751 4.450696 31.059868  
2002-08-21 07:12:26 51°15.295 2°54.522 21.76583 4.448058 31.039309  
2002-08-21 07:12:32 51°15.315 2°54.516 21.76583 4.448058 31.039309  
2002-08-21 07:12:36 51°15.327 2°54.511 21.85994 4.448375 31.041279  
2002-08-21 07:12:41 51°15.344 2°54.506 21.826428 4.44848 31.041106  
2002-08-21 07:12:47 51°15.363 2°54.499 21.922191 4.446898 31.027778  
2002-08-21 07:12:51 51°15.376 2°54.495 21.856511 4.447531 31.031717  
2002-08-21 07:12:56 51°15.393 2°54.49 21.789902 4.447847 31.034184  
2002-08-21 07:13:01 51°15.41 2°54.485 21.789902 4.447847 31.034184  
2002-08-21 07:13:07 51°15.429 2°54.478 21.787495 4.447742 31.031871  
2002-08-21 07:13:11 51°15.443 2°54.474 21.688904 4.44848 31.038123  
2002-08-21 07:13:16 51°15.46 2°54.468 21.683846 4.449852 31.050304  
2002-08-21 07:13:21 51°15.477 2°54.463 21.909863 4.45059 31.057553  
2002-08-21 07:13:25 51°15.49 2°54.457 21.902655 4.452594 31.073676  
2002-08-21 07:13:31 51°15.511 2°54.452 21.902655 4.452594 31.073676  
2002-08-21 07:13:36 51°15.528 2°54.445 21.931721 4.454704 31.090624  
2002-08-21 07:13:41 51°15.545 2°54.44 21.797871 4.456181 31.104133  
2002-08-21 07:13:46 51°15.562 2°54.434 21.849494 4.458186 31.121758  
2002-08-21 07:13:51 51°15.58 2°54.429 21.745817 4.460717 31.144  
2002-08-21 07:13:56 51°15.597 2°54.423 21.609481 4.461561 31.151582  
2002-08-21 07:14:01 51°15.614 2°54.418 21.609481 4.461561 31.151582  
2002-08-21 07:14:05 51°15.628 2°54.412 21.639142 4.463355 31.169569  
2002-08-21 07:14:11 51°15.649 2°54.407 21.499393 4.467364 31.20335  
2002-08-21 07:14:16 51°15.666 2°54.401 21.548342 4.468946 31.219704  
2002-08-21 07:14:21 51°15.684 2°54.395 21.638193 4.472322 31.251568  
2002-08-21 07:14:25 51°15.698 2°54.391 21.571775 4.475909 31.28359  
2002-08-21 07:14:32 51°15.722 2°54.381 21.571775 4.475909 31.28359  
2002-08-21 07:14:36 51°15.737 2°54.377 21.790257 4.478441 31.308387  
2002-08-21 07:14:41 51°15.754 2°54.37 22.046923 4.479391 31.318819  
2002-08-21 07:14:45 51°15.768 2°54.366 21.559426 4.482872 31.352562  
2002-08-21 07:14:52 51°15.792 2°54.356 21.459488 4.487198 31.393425  
2002-08-21 07:14:56 51°15.806 2°54.353 21.651042 4.49184 31.437293  
2002-08-21 07:15:01 51°15.824 2°54.346 21.651042 4.49184 31.437293  
2002-08-21 07:15:06 51°15.841 2°54.341 21.614781 4.493528 31.453023  
2002-08-21 07:15:12 51°15.861 2°54.334 22.004531 4.498908 31.500179  
2002-08-21 07:15:16 51°15.875 2°54.33 21.523792 4.50239 31.531986  
2002-08-21 07:15:21 51°15.892 2°54.325 21.623047 4.504605 31.551865  
2002-08-21 07:15:25 51°15.906 2°54.321 21.628861 4.507454 31.576199  
2002-08-21 07:15:31 51°15.926 2°54.316 21.628861 4.507454 31.576199  
2002-08-21 07:15:36 51°15.943 2°54.312 21.929555 4.510091 31.598885  
2002-08-21 07:15:41 51°15.96 2°54.307 21.676022 4.511885 31.614457  
2002-08-21 07:15:45 51°15.973 2°54.304 21.972189 4.51199 31.615791  
2002-08-21 07:15:51 51°15.991 2°54.298 21.719084 4.510408 31.602888  
2002-08-21 07:15:56 51°16.005 2°54.294 21.763857 4.510197 31.600727  
2002-08-21 07:16:01 51°16.018 2°54.29 21.763857 4.510197 31.600727  
2002-08-21 07:16:05 51°16.028 2°54.287 21.79941 4.509247 31.589228  
2002-08-21 07:16:11 51°16.042 2°54.284 21.541414 4.506188 31.560706  
2002-08-21 07:16:16 51°16.053 2°54.282 21.86869 4.504921 31.547246  
2002-08-21 07:16:21 51°16.062 2°54.281 21.706563 4.502178 31.522737  
2002-08-21 07:16:25 51°16.069 2°54.282 21.83601 4.498275 31.488649  
2002-08-21 07:16:31 51°16.079 2°54.283 21.83601 4.498275 31.488649  
2002-08-21 07:16:36 51°16.087 2°54.284 21.645033 4.495637 31.461445  
2002-08-21 07:16:41 51°16.094 2°54.286 21.68104 4.494055 31.446543  
2002-08-21 07:16:46 51°16.1 2°54.288 21.615058 4.492472 31.430131  
2002-08-21 07:16:51 51°16.106 2°54.29 21.713396 4.491523 31.42069  
2002-08-21 07:16:56 51°16.111 2°54.292 21.649105 4.491523 31.419681  
2002-08-21 07:17:01 51°16.116 2°54.293 21.649105 4.491523 31.419681  
2002-08-21 07:17:05 51°16.119 2°54.295 21.745224 4.492156 31.423621  
2002-08-21 07:17:11 51°16.124 2°54.297 21.744198 4.491312 31.414502  
2002-08-21 07:17:16 51°16.128 2°54.298 21.712014 4.489518 31.400986  
2002-08-21 07:17:21 51°16.131 2°54.3 21.580996 4.489307 31.397322  
2002-08-21 07:17:25 51°16.133 2°54.302 21.875114 4.488885 31.394527  
2002-08-21 07:17:31 51°16.137 2°54.304 21.875114 4.488885 31.394527  
2002-08-21 07:17:36 51°16.139 2°54.306 21.616284 4.488463 31.390725  
2002-08-21 07:17:41 51°16.142 2°54.308 21.614979 4.488041 31.386419  
2002-08-21 07:17:45 51°16.143 2°54.309 21.614979 4.487303 31.383669  
2002-08-21 07:17:52 51°16.146 2°54.311 21.774276 4.487092 31.380509  
2002-08-21 07:17:56 51°16.148 2°54.313 21.743053 4.486459 31.375562  
2002-08-21 07:18:01 51°16.15 2°54.314 21.743053 4.486459 31.375562  
2002-08-21 07:18:06 51°16.152 2°54.316 21.547352 4.486564 31.37538  
2002-08-21 07:18:11 51°16.154 2°54.318 21.612843 4.484876 31.362692  
2002-08-21 07:18:16 51°16.156 2°54.32 21.48295 4.485404 31.366311  
2002-08-21 07:18:21 51°16.159 2°54.321 21.936564 4.486353 31.373731  
2002-08-21 07:18:26 51°16.162 2°54.323 21.776841 4.486248 31.374417  
2002-08-21 07:18:31 51°16.164 2°54.325 21.776841 4.486248 31.374417  
2002-08-21 07:18:37 51°16.168 2°54.327 21.808364 4.484982 31.365529  
2002-08-21 07:18:41 51°16.171 2°54.328 21.967663 4.485193 31.366675  
2002-08-21 07:18:45 51°16.173 2°54.329 21.710631 4.484876 31.364705  
2002-08-21 07:18:51 51°16.177 2°54.33 21.678432 4.484243 31.358751  
2002-08-21 07:18:56 51°16.181 2°54.332 21.709486 4.481079 31.334522  
2002-08-21 07:19:01 51°16.185 2°54.333 21.709486 4.481079 31.334522  
2002-08-21 07:19:06 51°16.188 2°54.334 21.775973 4.481817 31.340795  
2002-08-21 07:19:11 51°16.192 2°54.335 21.838928 4.482872 31.347027  
2002-08-21 07:19:16 51°16.196 2°54.335 21.99926 4.482028 31.341438  
2002-08-21 07:19:21 51°16.2 2°54.336 21.838297 4.481817 31.340795  
2002-08-21 07:19:26 51°16.204 2°54.336 21.740566 4.482028 31.342444  
2002-08-21 07:19:31 51°16.208 2°54.336 21.740566 4.482028 31.342444  
2002-08-21 07:19:36 51°16.212 2°54.337 21.774947 4.481184 31.335849  
2002-08-21 07:19:41 51°16.215 2°54.338 21.642937 4.480762 31.332049  
2002-08-21 07:19:45 51°16.218 2°54.338 21.612923 4.481501 31.338825  
2002-08-21 07:19:51 51°16.221 2°54.338 21.578978 4.481079 31.334522  
2002-08-21 07:19:56 51°16.224 2°54.337 21.805209 4.480657 31.331224  
2002-08-21 07:20:01 51°16.226 2°54.337 21.805209 4.480657 31.331224  
2002-08-21 07:20:06 51°16.227 2°54.337 21.70597 4.480762 31.333054  
2002-08-21 07:20:12 51°16.229 2°54.336 21.738473 4.480762 31.333557  
2002-08-21 07:20:16 51°16.23 2°54.336 21.738315 4.480446 31.330581  
2002-08-21 07:20:21 51°16.232 2°54.336 21.673848 4.481606 31.339649  
2002-08-21 07:20:26 51°16.233 2°54.335 21.738473 4.479707 31.32481  
2002-08-21 07:20:31 51°16.234 2°54.335 21.738473 4.479707 31.32481  
2002-08-21 07:20:36 51°16.235 2°54.335 21.737565 4.479496 31.323162  
2002-08-21 07:20:41 51°16.235 2°54.335 21.73563 4.481184 31.336855  
2002-08-21 07:20:45 51°16.236 2°54.335 21.768198 4.480235 31.329435  
2002-08-21 07:20:52 51°16.236 2°54.335 21.638746 4.48034 31.330259  
2002-08-21 07:20:56 51°16.236 2°54.335 21.799489 4.480551 31.332411  
2002-08-21 07:21:01 51°16.236 2°54.335 21.799489 4.480551 31.332411  
2002-08-21 07:21:05 51°16.236 2°54.334 21.70206 4.48034 31.331265  
2002-08-21 07:21:12 51°16.235 2°54.334 21.898597 4.480446 31.332089  
2002-08-21 07:21:16 51°16.235 2°54.334 21.60426 4.479813 31.328651  
2002-08-21 07:21:21 51°16.234 2°54.333 21.733932 4.479602 31.325997  
2002-08-21 07:21:25 51°16.234 2°54.333 21.701665 4.478969 31.321553  
2002-08-21 07:21:31 51°16.233 2°54.333 21.701665 4.478969 31.321553  
2002-08-21 07:21:36 51°16.233 2°54.333 21.766027 4.480657 31.33575  
2002-08-21 07:21:41 51°16.232 2°54.332 21.701665 4.480129 31.334142  
2002-08-21 07:21:47 51°16.23 2°54.331 21.764922 4.480129 31.33213  
2002-08-21 07:21:52 51°16.229 2°54.33 21.763935 4.480129 31.33213  
2002-08-21 07:21:56 51°16.228 2°54.33 21.634674 4.479813 31.330663  
2002-08-21 07:22:01 51°16.227 2°54.329 21.634674 4.479813 31.330663  
2002-08-21 07:22:05 51°16.226 2°54.328 21.601372 4.458081 31.159386  
2002-08-21 07:22:11 51°16.224 2°54.327 21.860098 4.480657 31.337259  
2002-08-21 07:22:16 51°16.223 2°54.327 21.924672 4.480551 31.335931  
2002-08-21 07:22:21 51°16.222 2°54.326 21.666774 4.480446 31.336616  
2002-08-21 07:22:25 51°16.221 2°54.326 21.698978 4.480235 31.334966  
2002-08-21 07:22:31 51°16.219 2°54.326 21.698978 4.480235 31.334966  
2002-08-21 07:22:36 51°16.218 2°54.325 21.667841 4.480551 31.337943  
2002-08-21 07:22:41 51°16.217 2°54.324 21.85994 4.480657 31.339271  
2002-08-21 07:22:46 51°16.215 2°54.323 21.762988 4.48034 31.336294  
2002-08-21 07:22:51 51°16.214 2°54.323 21.796057 4.480551 31.33744  
2002-08-21 07:22:56 51°16.212 2°54.322 21.537415 4.48034 31.3373  
2002-08-21 07:23:01 51°16.211 2°54.321 21.537415 4.48034 31.3373  
2002-08-21 07:23:05 51°16.209 2°54.321 21.829031 4.480551 31.33744  
2002-08-21 07:23:11 51°16.208 2°54.321 21.668552 4.480235 31.336475  
2002-08-21 07:23:16 51°16.206 2°54.321 21.736183 4.480446 31.337622  
2002-08-21 07:23:21 51°16.205 2°54.321 21.73871 4.48034 31.336797  
2002-08-21 07:23:25 51°16.204 2°54.322 21.772342 4.480235 31.334966  
2002-08-21 07:23:32 51°16.202 2°54.322 21.772342 4.480235 31.334966  
2002-08-21 07:23:36 51°16.201 2°54.322 21.67701 4.480446 31.336616  
2002-08-21 07:23:41 51°16.2 2°54.321 21.646219 4.480551 31.33744  
2002-08-21 07:23:46 51°16.199 2°54.322 21.778617 4.480235 31.334464  
2002-08-21 07:23:51 51°16.198 2°54.323 21.780392 4.480024 31.329797  
2002-08-21 07:23:56 51°16.197 2°54.323 21.620042 4.480446 31.334101  
2002-08-21 07:24:01 51°16.195 2°54.323 21.620042 4.480446 31.334101  
2002-08-21 07:24:06 51°16.194 2°54.323 21.7813 4.480657 31.334241  
2002-08-21 07:24:11 51°16.194 2°54.323 21.6529 4.480762 31.334563  
2002-08-21 07:24:16 51°16.193 2°54.323 21.715766 4.480762 31.33406  
2002-08-21 07:24:21 51°16.192 2°54.322 21.717228 4.480024 31.325775  
2002-08-21 07:24:26 51°16.192 2°54.323 21.78059 4.480868 31.330359  
2002-08-21 07:24:31 51°16.191 2°54.323 21.78059 4.480868 31.330359  
2002-08-21 07:24:36 51°16.191 2°54.322 21.519951 4.480868 31.330359  
2002-08-21 07:24:41 51°16.19 2°54.322 21.747119 4.480445 31.325554  
2002-08-21 07:24:46 51°16.189 2°54.322 21.616522 4.480235 31.324408  
2002-08-21 07:24:51 51°16.188 2°54.321 21.778222 4.479074 31.315342  
2002-08-21 07:24:56 51°16.188 2°54.32 21.618064 4.476753 31.296707  
2002-08-21 07:25:01 51°16.187 2°54.32 21.618064 4.476753 31.296707  
2002-08-21 07:25:05 51°16.187 2°54.32 21.519357 4.476964 31.298356  
2002-08-21 07:25:11 51°16.185 2°54.32 21.650133 4.480762 31.328529  
2002-08-21 07:25:16 51°16.185 2°54.32 21.681673 4.480235 31.324911  
2002-08-21 07:25:21 51°16.184 2°54.32 21.746369 4.480235 31.324911  
2002-08-21 07:25:25 51°16.183 2°54.318 21.680882 4.48034 31.325735  
2002-08-21 07:25:32 51°16.182 2°54.318 21.680882 4.48034 31.325735  
2002-08-21 07:25:36 51°16.181 2°54.317 21.584043 4.480024 31.323262  
2002-08-21 07:25:41 51°16.18 2°54.317 21.679974 4.479391 31.318819  
2002-08-21 07:25:46 51°16.179 2°54.316 21.454969 4.479707 31.321292  
2002-08-21 07:25:51 51°16.178 2°54.316 21.616838 4.480235 31.324911  
2002-08-21 07:25:56 51°16.177 2°54.315 21.650607 4.479918 31.322941  
2002-08-21 07:26:01 51°16.176 2°54.315 21.650607 4.479918 31.322941  
2002-08-21 07:26:05 51°16.175 2°54.314 21.683648 4.479285 31.318497  
2002-08-21 07:26:11 51°16.173 2°54.314 21.584597 4.479496 31.320146  
2002-08-21 07:26:16 51°16.172 2°54.313 21.519515 4.479813 31.322619  
2002-08-21 07:26:21 51°16.171 2°54.312 21.552459 4.480129 31.325092  
2002-08-21 07:26:25 51°16.171 2°54.312 21.845827 4.479707 31.322297  
2002-08-21 07:26:32 51°16.169 2°54.311 21.845827 4.479707 31.322297  
2002-08-21 07:26:37 51°16.168 2°54.31 21.554676 4.479074 31.316346  
2002-08-21 07:26:41 51°16.168 2°54.31 21.749212 4.479496 31.319643  
2002-08-21 07:26:45 51°16.167 2°54.309 21.654639 4.479707 31.321795  
2002-08-21 07:26:51 51°16.166 2°54.309 21.75387 4.479602 31.320468  
2002-08-21 07:26:56 51°16.165 2°54.308 21.55721 4.479391 31.318317  
2002-08-21 07:27:01 51°16.164 2°54.308 21.55721 4.479391 31.318317  
2002-08-21 07:27:07 51°16.163 2°54.307 21.817436 4.479707 31.319784  
2002-08-21 07:27:11 51°16.162 2°54.306 21.689338 4.480024 31.322257  
2002-08-21 07:27:17 51°16.161 2°54.306 21.55907 4.479707 31.320287  
2002-08-21 07:27:21 51°16.161 2°54.305 21.623641 4.478969 31.312508  
2002-08-21 07:27:26 51°16.16 2°54.304 21.625104 4.479285 31.314478  
2002-08-21 07:27:31 51°16.159 2°54.303 21.625104 4.479285 31.314478  
2002-08-21 07:27:36 51°16.158 2°54.303 21.753041 4.479812 31.318096  
2002-08-21 07:27:41 51°16.157 2°54.302 21.722757 4.479918 31.31892  
2002-08-21 07:27:45 51°16.156 2°54.301 21.529455 4.479496 31.315121  
2002-08-21 07:27:51 51°16.155 2°54.3 21.657485 4.479496 31.316126  
2002-08-21 07:27:56 51°16.154 2°54.299 21.52799 4.479601 31.316448  
2002-08-21 07:28:01 51°16.153 2°54.298 21.52799 4.479601 31.316448  
2002-08-21 07:28:05 51°16.152 2°54.297 21.62633 4.479601 31.315443  
2002-08-21 07:28:11 51°16.151 2°54.296 21.690326 4.479496 31.314619  
2002-08-21 07:28:16 51°16.15 2°54.295 21.496422 4.479074 31.31082  
2002-08-21 07:28:21 51°16.15 2°54.294 21.787574 4.478968 31.309494  
2002-08-21 07:28:25 51°16.149 2°54.293 21.757383 4.479601 31.313936  
2002-08-21 07:28:31 51°16.149 2°54.292 21.757383 4.479601 31.313936  
2002-08-21 07:28:36 51°16.149 2°54.291 21.595161 4.478863 31.308168  
2002-08-21 07:28:41 51°16.148 2°54.29 21.757857 4.47939 31.312288  
2002-08-21 07:28:46 51°16.148 2°54.289 21.725916 4.47939 31.312288  
2002-08-21 07:28:51 51°16.147 2°54.288 21.693526 4.479812 31.315584  
2002-08-21 07:28:56 51°16.147 2°54.287 21.888235 4.479285 31.310962  
2002-08-21 07:29:01 51°16.146 2°54.286 21.888235 4.479285 31.310962  
2002-08-21 07:29:06 51°16.146 2°54.285 21.823194 4.479496 31.312108  
2002-08-21 07:29:11 51°16.146 2°54.284 21.629098 4.479707 31.313253  
2002-08-21 07:29:16 51°16.145 2°54.282 21.759081 4.479496 31.310601  
2002-08-21 07:29:21 51°16.145 2°54.281 21.855486 4.479496 31.311605  
2002-08-21 07:29:25 51°16.145 2°54.28 21.59706 4.479601 31.311425  
2002-08-21 07:29:31 51°16.145 2°54.278 21.59706 4.479601 31.311425  
2002-08-21 07:29:36 51°16.145 2°54.276 21.663177 4.479918 31.314399  
2002-08-21 07:29:41 51°16.144 2°54.275 21.693684 4.480023 31.314219  
2002-08-21 07:29:46 51°16.145 2°54.273 21.628465 4.47939 31.309777  
2002-08-21 07:29:51 51°16.145 2°54.272 21.593024 4.479707 31.310742  
2002-08-21 07:29:57 51°16.145 2°54.27 21.690326 4.479918 31.313395  
2002-08-21 07:30:01 51°16.144 2°54.269 21.690326 4.479918 31.313395  
2002-08-21 07:30:05 51°16.144 2°54.267 21.755804 4.479812 31.312068  
2002-08-21 07:30:12 51°16.144 2°54.265 21.624946 4.479496 31.310099  
2002-08-21 07:30:16 51°16.144 2°54.264 21.721532 4.479601 31.311425  
2002-08-21 07:30:21 51°16.144 2°54.264 21.914432 4.47939 31.310279  
2002-08-21 07:30:25 51°16.144 2°54.262 21.689101 4.479601 31.312429  
2002-08-21 07:30:32 51°16.145 2°54.26 21.689101 4.479601 31.312429  
2002-08-21 07:30:36 51°16.145 2°54.259 21.656971 4.480023 31.313716  
2002-08-21 07:30:41 51°16.145 2°54.258 21.721769 4.479179 31.309635  
2002-08-21 07:30:46 51°16.145 2°54.257 21.719913 4.479074 31.308811  
2002-08-21 07:30:51 51°16.145 2°54.256 21.914078 4.479496 31.312108  
2002-08-21 07:30:56 51°16.146 2°54.255 21.720901 4.479285 31.310459  
2002-08-21 07:31:01 51°16.146 2°54.254 21.720901 4.479285 31.310459  
2002-08-21 07:31:05 51°16.146 2°54.254 21.817988 4.478652 31.306519  
2002-08-21 07:31:11 51°16.147 2°54.253 21.88201 4.478968 31.309494  
2002-08-21 07:31:16 51°16.147 2°54.251 21.688232 4.478757 31.307846  
2002-08-21 07:31:21 51°16.147 2°54.251 21.754265 4.479179 31.311142  
2002-08-21 07:31:26 51°16.147 2°54.25 21.755252 4.479812 31.316087  
2002-08-21 07:31:31 51°16.148 2°54.25 21.755252 4.479812 31.316087  
2002-08-21 07:31:37 51°16.148 2°54.25 21.789744 4.478547 31.307202  
2002-08-21 07:31:41 51°16.148 2°54.25 21.723665 4.478652 31.307524  
2002-08-21 07:31:46 51°16.148 2°54.25 21.689496 4.478968 31.309494  
2002-08-21 07:31:52 51°16.149 2°54.251 21.980728 4.478336 31.305052  
2002-08-21 07:31:56 51°16.15 2°54.251 21.526842 4.478757 31.306841  
2002-08-21 07:32:01 51°16.15 2°54.251 21.526842 4.478757 31.306841  
2002-08-21 07:32:05 51°16.151 2°54.251 21.59247 4.478968 31.307987  
2002-08-21 07:32:11 51°16.151 2°54.252 21.817988 4.478863 31.307163  
2002-08-21 07:32:16 51°16.152 2°54.253 21.591481 4.478546 31.304189  
2002-08-21 07:32:21 51°16.153 2°54.253 21.849967 4.478757 31.307846  
2002-08-21 07:32:27 51°16.154 2°54.255 21.561128 4.478757 31.306841  
2002-08-21 07:32:32 51°16.155 2°54.255 21.561128 4.478757 31.306841  
2002-08-21 07:32:36 51°16.156 2°54.255 21.75233 4.478019 31.300069  
2002-08-21 07:32:41 51°16.158 2°54.255 21.880591 4.478441 31.303867  
2002-08-21 07:32:46 51°16.159 2°54.255 21.814163 4.478757 31.307344  
2002-08-21 07:32:51 51°16.161 2°54.256 21.682898 4.478335 31.304549  
2002-08-21 07:32:56 51°16.161 2°54.257 21.747909 4.478335 31.304047  
2002-08-21 07:33:01 51°16.162 2°54.258 21.747909 4.478335 31.304047  
2002-08-21 07:33:05 51°16.163 2°54.258 21.780313 4.477492 31.298961  
2002-08-21 07:33:12 51°16.165 2°54.259 21.906988 4.477386 31.297133  
2002-08-21 07:33:16 51°16.166 2°54.259 21.745698 4.477597 31.299785  
2002-08-21 07:33:21 51°16.167 2°54.26 21.809311 4.477914 31.303262  
2002-08-21 07:33:26 51°16.169 2°54.26 21.776722 4.47823 31.305232  
2002-08-21 07:33:32 51°16.17 2°54.261 21.776722 4.47823 31.305232  
2002-08-21 07:33:36 51°16.172 2°54.261 21.679381 4.476753 31.295703  
2002-08-21 07:33:41 51°16.173 2°54.261 21.648393 4.477914 31.304768  
2002-08-21 07:33:46 51°16.174 2°54.261 21.808009 4.477492 31.301472  
2002-08-21 07:33:52 51°16.176 2°54.261 21.744079 4.477808 31.304447  
2002-08-21 07:33:56 51°16.177 2°54.261 21.714463 4.477914 31.305271  
2002-08-21 07:34:01 51°16.178 2°54.262 21.714463 4.477914 31.305271  
2002-08-21 07:34:06 51°16.179 2°54.262 21.874601 4.477281 31.302335  
2002-08-21 07:34:11 51°16.18 2°54.262 21.614228 4.477597 31.304807  
2002-08-21 07:34:16 51°16.18 2°54.263 21.776407 4.477808 31.306456  
2002-08-21 07:34:21 51°16.181 2°54.263 21.712804 4.476859 31.301047  
2002-08-21 07:34:25 51°16.181 2°54.264 21.679341 4.477597 31.305812  
2002-08-21 07:34:32 51°16.182 2°54.264 21.679341 4.477597 31.305812  
2002-08-21 07:34:36 51°16.182 2°54.266 21.678037 4.476437 31.295239  
2002-08-21 07:34:41 51°16.183 2°54.266 21.776841 4.477175 31.302013  
2002-08-21 07:34:45 51°16.183 2°54.266 21.678749 4.477914 31.306778  
2002-08-21 07:34:51 51°16.183 2°54.266 21.775223 4.477808 31.306456  
2002-08-21 07:34:56 51°16.182 2°54.267 21.677365 4.47707 31.301691  
2002-08-21 07:35:01 51°16.182 2°54.267 21.677365 4.47707 31.301691  
2002-08-21 07:35:05 51°16.182 2°54.268 21.710631 4.472322 31.265106  
2002-08-21 07:35:12 51°16.182 2°54.269 21.739855 4.47707 31.301691  
2002-08-21 07:35:16 51°16.182 2°54.269 21.611459 4.476859 31.300042  
2002-08-21 07:35:21 51°16.181 2°54.269 21.741987 4.477175 31.303017  
2002-08-21 07:35:27 51°16.18 2°54.27 21.644202 4.476437 31.295741  
2002-08-21 07:35:32 51°16.179 2°54.271 21.644202 4.476437 31.295741  
2002-08-21 07:35:36 51°16.178 2°54.27 21.611696 4.476331 31.295921  
2002-08-21 07:35:41 51°16.176 2°54.271 21.774315 4.47612 31.295277  
2002-08-21 07:35:46 51°16.175 2°54.271 21.550242 4.476542 31.299076  
2002-08-21 07:35:51 51°16.174 2°54.272 21.710552 4.476331 31.297428  
2002-08-21 07:35:56 51°16.173 2°54.271 21.512624 4.475698 31.292985  
2002-08-21 07:36:01 51°16.171 2°54.271 21.512624 4.475698 31.292985  
2002-08-21 07:36:06 51°16.169 2°54.271 21.647247 4.475171 31.28786  
2002-08-21 07:36:11 51°16.168 2°54.271 21.677049 4.453123 31.115678  
2002-08-21 07:36:16 51°16.167 2°54.271 21.742066 4.474749 31.284061  
2002-08-21 07:36:21 51°16.165 2°54.271 21.545452 4.474327 31.279259  
2002-08-21 07:36:26 51°16.164 2°54.272 21.417855 4.474432 31.281087  
2002-08-21 07:36:32 51°16.163 2°54.272 21.417855 4.474432 31.281087  
2002-08-21 07:36:37 51°16.161 2°54.272 21.708657 4.47401 31.276786  
2002-08-21 07:36:41 51°16.161 2°54.271 21.676773 4.474327 31.280764  
2002-08-21 07:36:45 51°16.16 2°54.272 21.580283 4.474749 31.285065  
2002-08-21 07:36:51 51°16.159 2°54.271 21.904861 4.474854 31.287395  
2002-08-21 07:36:56 51°16.158 2°54.272 21.711105 4.475276 31.289688  
2002-08-21 07:37:01 51°16.157 2°54.272 21.711105 4.475276 31.289688  
2002-08-21 07:37:06 51°16.157 2°54.272 21.679065 4.475698 31.293989  
2002-08-21 07:37:12 51°16.156 2°54.272 21.841136 4.476015 31.29596  
2002-08-21 07:37:16 51°16.155 2°54.272 21.971362 4.475909 31.294633  
2002-08-21 07:37:21 51°16.155 2°54.272 21.712725 4.476437 31.298754  
2002-08-21 07:37:26 51°16.154 2°54.272 21.777867 4.476015 31.294453  
2002-08-21 07:37:31 51°16.154 2°54.271 21.777867 4.476015 31.294453  
2002-08-21 07:37:37 51°16.153 2°54.271 21.776486 4.476437 31.297248  
2002-08-21 07:37:41 51°16.153 2°54.27 21.840781 4.476542 31.29757  
2002-08-21 07:37:45 51°16.152 2°54.27 21.808088 4.476753 31.298716  
2002-08-21 07:37:51 51°16.152 2°54.27 21.679499 4.476648 31.296887  
2002-08-21 07:37:56 51°16.152 2°54.27 21.710631 4.476542 31.296565  
2002-08-21 07:38:01 51°16.152 2°54.269 21.710631 4.476542 31.296565  
2002-08-21 07:38:06 51°16.152 2°54.269 21.709881 4.476753 31.298716  
2002-08-21 07:38:11 51°16.152 2°54.269 21.807852 4.476859 31.299038  
2002-08-21 07:38:16 51°16.153 2°54.268 21.906318 4.47707 31.301691  
2002-08-21 07:38:21 51°16.153 2°54.268 21.711658 4.476542 31.29757  
2002-08-21 07:38:27 51°16.153 2°54.268 21.550678 4.476648 31.298394  
2002-08-21 07:38:32 51°16.153 2°54.268 21.550678 4.476648 31.298394  
2002-08-21 07:38:36 51°16.154 2°54.268 21.714265 4.476015 31.293449  
2002-08-21 07:38:41 51°16.154 2°54.267 21.874877 4.47612 31.294775  
2002-08-21 07:38:45 51°16.154 2°54.268 21.712488 4.476542 31.298072  
2002-08-21 07:38:51 51°16.154 2°54.268 21.842437 4.475487 31.28983  
2002-08-21 07:38:56 51°16.154 2°54.268 21.649144 4.476753 31.299218  
2002-08-21 07:39:01 51°16.154 2°54.268 21.649144 4.476753 31.299218  
2002-08-21 07:39:05 51°16.154 2°54.268 21.747909 4.475804 31.2918  
2002-08-21 07:39:12 51°16.154 2°54.269 21.714463 4.474643 31.282735  
2002-08-21 07:39:16 51°16.155 2°54.27 21.842595 4.475487 31.286818  
2002-08-21 07:39:21 51°16.155 2°54.27 21.77763 4.475909 31.291118  
2002-08-21 07:39:26 51°16.155 2°54.271 21.583726 4.475065 31.284024  
2002-08-21 07:39:31 51°16.154 2°54.271 21.583726 4.475065 31.284024  
2002-08-21 07:39:37 51°16.154 2°54.271 21.682384 4.476331 31.293411  
2002-08-21 07:39:41 51°16.155 2°54.272 21.55147 4.476226 31.292587  
2002-08-21 07:39:45 51°16.155 2°54.272 21.810928 4.476331 31.293913  
2002-08-21 07:39:51 51°16.155 2°54.273 21.939793 4.476437 31.294235  
2002-08-21 07:39:56 51°16.155 2°54.274 21.616601 4.476648 31.296887  
2002-08-21 07:40:01 51°16.155 2°54.274 21.616601 4.476648 31.296887  
2002-08-21 07:40:05 51°16.155 2°54.274 21.584201 4.476542 31.295059  
2002-08-21 07:40:12 51°16.155 2°54.274 21.973212 4.476331 31.294415  
2002-08-21 07:40:16 51°16.155 2°54.275 21.518367 4.476859 31.298536  
2002-08-21 07:40:21 51°16.156 2°54.275 21.808917 4.476542 31.294055  
2002-08-21 07:40:26 51°16.156 2°54.276 21.745066 4.476753 31.295703  
2002-08-21 07:40:32 51°16.157 2°54.276 21.745066 4.476753 31.295703  
2002-08-21 07:40:37 51°16.157 2°54.277 21.906161 4.476648 31.296385  
2002-08-21 07:40:41 51°16.157 2°54.278 21.648749 5.243999 35.804192  
2002-08-21 07:40:45 51°16.158 2°54.279 21.550163 4.476331 31.294917  
2002-08-21 07:40:51 51°16.158 2°54.28 22.067049 4.182863 27.400508  
2002-08-21 07:40:56 51°16.159 2°54.281 21.647523 4.476542 31.296565  
2002-08-21 07:41:01 51°16.16 2°54.282 21.647523 4.476542 31.296565  
2002-08-21 07:41:07 51°16.161 2°54.283 21.517812 4.477597 31.304807  
2002-08-21 07:41:12 51°16.162 2°54.285 21.776328 4.476648 31.29739  
2002-08-21 07:41:16 51°16.164 2°54.287 21.55044 4.476331 31.293411  
2002-08-21 07:41:21 51°16.167 2°54.289 21.712883 2.954968 19.751303  
2002-08-21 07:41:26 51°16.171 2°54.291 21.841136 3.758973 25.143852  
2002-08-21 07:41:31 51°16.175 2°54.293 21.841136 3.758973 25.143852  
2002-08-21 07:41:36 51°16.181 2°54.295 21.744474 4.476226 31.293591  
2002-08-21 07:41:41 51°16.188 2°54.296 22.09817 4.476015 31.292445  
2002-08-21 07:41:45 51°16.194 2°54.295 21.808443 4.476331 31.294415  
2002-08-21 07:41:51 51°16.203 2°54.293 21.871015 4.47612 31.291763  
2002-08-21 07:41:56 51°16.212 2°54.289 21.77321 4.470318 31.247945  
2002-08-21 07:42:01 51°16.221 2°54.283 21.77321 4.470318 31.247945  
2002-08-21 07:42:05 51°16.228 2°54.277 21.772342 4.476226 31.293591  
2002-08-21 07:42:12 51°16.241 2°54.263 21.867705 4.476437 31.297248  
2002-08-21 07:42:17 51°16.249 2°54.249 21.931012 4.474749 31.283559  
2002-08-21 07:42:21 51°16.256 2°54.237 21.834157 4.476212 30.634683  
2002-08-21 07:42:26 51°16.265 2°54.221 21.735038 4.474854 31.284885  
2002-08-21 07:42:31 51°16.273 2°54.203 21.735038 4.474854 31.284885  
2002-08-21 07:42:36 51°16.283 2°54.185 21.602124 4.476226 31.296102  
2002-08-21 07:42:41 51°16.292 2°54.166 21.797161 4.475065 31.288039  
2002-08-21 07:42:47 51°16.304 2°54.143 21.502919 4.476331 31.298935  
2002-08-21 07:42:52 51°16.314 2°54.123 21.781813 4.474854 31.287897  
2002-08-21 07:42:56 51°16.323 2°54.108 21.709644 4.47612 31.298793  
2002-08-21 07:43:01 51°16.334 2°54.087 21.709644 4.47612 31.298793  
2002-08-21 07:43:06 51°16.345 2°54.067 21.732274 4.475909 31.29614  
2002-08-21 07:43:12 51°16.358 2°54.042 21.855486 4.476542 31.303597  
2002-08-21 07:43:16 51°16.366 2°54.026 21.719084 4.476648 31.305929  
2002-08-21 07:43:21 51°16.376 2°54.004 21.711737 4.476964 31.311418  
2002-08-21 07:43:27 51°16.389 2°53.978 21.616838 4.476964 31.313931  
2002-08-21 07:43:31 51°16.397 2°53.961 21.616838 4.476964 31.313931  
2002-08-21 07:43:36 51°16.408 2°53.939 21.520268 4.478652 31.332155  
2002-08-21 07:43:41 51°16.418 2°53.917 21.517297 4.479286 31.341633  
2002-08-21 07:43:45 51°16.427 2°53.9 21.514247 4.480974 31.360875  
2002-08-21 07:43:51 51°16.439 2°53.874 21.763699 4.482662 31.379623  
2002-08-21 07:43:56 51°16.45 2°53.852 21.527555 4.48435 31.396359  
2002-08-21 07:44:01 51°16.461 2°53.831 21.527555 4.48435 31.396359  
2002-08-21 07:44:05 51°16.47 2°53.814 21.531317 4.48551 31.406954  
2002-08-21 07:44:11 51°16.483 2°53.787 21.915259 4.486038 31.413101  
2002-08-21 07:44:16 51°16.494 2°53.765 21.687323 4.484772 31.406222  
2002-08-21 07:44:21 51°16.505 2°53.742 21.717623 4.483506 31.397829  
2002-08-21 07:44:27 51°16.519 2°53.716 21.689496 4.484877 31.412098  
2002-08-21 07:44:32 51°16.531 2°53.694 21.689496 4.484877 31.412098  
2002-08-21 07:44:36 51°16.54 2°53.676 21.553924 4.487409 31.435961  
2002-08-21 07:44:41 51°16.551 2°53.653 21.581431 4.487304 31.439179  
2002-08-21 07:44:45 51°16.561 2°53.635 21.646456 4.487304 31.440191  
2002-08-21 07:44:52 51°16.577 2°53.604 21.709644 4.488254 31.451167  
2002-08-21 07:44:56 51°16.586 2°53.586 21.544304 4.488465 31.453831  
2002-08-21 07:45:01 51°16.597 2°53.563 21.544304 4.488465 31.453831  
2002-08-21 07:45:06 51°16.609 2°53.541 21.737486 4.488359 31.452499  
2002-08-21 07:45:12 51°16.623 2°53.514 21.605565 4.488887 31.458654  
2002-08-21 07:45:16 51°16.632 2°53.496 21.535039 4.489625 31.466463  
2002-08-21 07:45:21 51°16.645 2°53.475 21.566828 4.489098 31.462332  
2002-08-21 07:45:26 51°16.656 2°53.452 21.529297 4.490364 31.475287  
2002-08-21 07:45:32 51°16.67 2°53.426 21.529297 4.490364 31.475287  
2002-08-21 07:45:36 51°16.68 2°53.408 21.491826 4.491946 31.488698  
2002-08-21 07:45:41 51°16.691 2°53.386 21.748659 4.492368 31.493018  
2002-08-21 07:45:45 51°16.701 2°53.369 21.549253 4.493845 31.506112  
2002-08-21 07:45:51 51°16.714 2°53.343 21.449538 4.495006 31.519264  
2002-08-21 07:45:56 51°16.726 2°53.32 21.477125 4.496377 31.530521  
2002-08-21 07:46:01 51°16.737 2°53.298 21.477125 4.496377 31.530521  
2002-08-21 07:46:06 51°16.749 2°53.276 21.671991 4.498382 31.54928  
2002-08-21 07:46:11 51°16.76 2°53.254 21.600423 4.500386 31.568043  
2002-08-21 07:46:16 51°16.772 2°53.233 21.598286 4.501652 31.580004  
2002-08-21 07:46:21 51°16.783 2°53.211 21.719005 4.503762 31.599603  
2002-08-21 07:46:26 51°16.795 2°53.191 21.493173 4.506189 31.621691  
2002-08-21 07:46:31 51°16.806 2°53.169 21.493173 4.506189 31.621691  
2002-08-21 07:46:36 51°16.818 2°53.148 21.585111 4.507877 31.635952  
2002-08-21 07:46:41 51°16.83 2°53.128 21.753396 4.509987 31.654545  
2002-08-21 07:46:46 51°16.841 2°53.107 21.6427 4.511042 31.666905  
2002-08-21 07:46:51 51°16.853 2°53.088 21.483465 4.511675 31.673914  
2002-08-21 07:46:57 51°16.867 2°53.062 21.507751 4.512097 31.679778  
2002-08-21 07:47:01 51°16.877 2°53.046 21.507751 4.512097 31.679778  
2002-08-21 07:47:06 51°16.887 2°53.024 21.410239 4.513996 31.696727  
2002-08-21 07:47:11 51°16.899 2°53.004 21.730576 4.515684 31.713045  
2002-08-21 07:47:16 51°16.91 2°52.983 21.502958 4.516212 31.718721  
2002-08-21 07:47:21 51°16.923 2°52.962 21.790099 4.5179 31.734533  
2002-08-21 07:47:27 51°16.936 2°52.936 21.591481 4.518849 31.744037  
2002-08-21 07:47:32 51°16.948 2°52.915 21.591481 4.518849 31.744037  
2002-08-21 07:47:36 51°16.957 2°52.897 21.627318 4.521487 31.767826  
2002-08-21 07:47:41 51°16.969 2°52.876 21.520901 4.522225 31.77619  
2002-08-21 07:47:46 51°16.98 2°52.854 21.619053 4.523702 31.789845  
2002-08-21 07:47:51 51°16.992 2°52.833 21.422297 4.524546 31.797502  
2002-08-21 07:47:56 51°17.003 2°52.811 21.645507 4.525285 31.80587  
2002-08-21 07:48:02 51°17.017 2°52.785 21.645507 4.525285 31.80587  
2002-08-21 07:48:07 51°17.029 2°52.764 21.679815 4.526551 31.818386  
2002-08-21 07:48:11 51°17.038 2°52.746 21.771158 4.527395 31.826047  
2002-08-21 07:48:16 51°17.05 2°52.724 21.60604 4.528556 31.838251  
2002-08-21 07:48:21 51°17.062 2°52.703 21.378539 4.528239 31.837303  
2002-08-21 07:48:26 51°17.073 2°52.68 21.540186 4.528661 31.842162  
2002-08-21 07:48:31 51°17.086 2°52.659 21.540186 4.528661 31.842162  
2002-08-21 07:48:36 51°17.096 2°52.637 21.564413 4.528978 31.847734  
2002-08-21 07:48:41 51°17.108 2°52.616 21.336382 4.529822 31.853343  
2002-08-21 07:48:46 51°17.119 2°52.595 21.431458 4.529822 31.856427  
2002-08-21 07:48:51 51°17.131 2°52.574 21.685071 4.530455 31.861405  
2002-08-21 07:48:56 51°17.141 2°52.553 21.391395 4.530138 31.860973  
2002-08-21 07:49:01 51°17.152 2°52.532 21.391395 4.530138 31.860973  
2002-08-21 07:49:06 51°17.164 2°52.511 21.519436 4.529083 31.854733  
2002-08-21 07:49:11 51°17.175 2°52.49 21.580679 4.5294 31.85825  
2002-08-21 07:49:16 51°17.187 2°52.469 21.381237 4.5294 31.862365  
2002-08-21 07:49:21 51°17.199 2°52.448 21.314857 4.529506 31.864738  
2002-08-21 07:49:25 51°17.208 2°52.43 21.310051 4.53035 31.874466  
2002-08-21 07:49:32 51°17.225 2°52.4 21.310051 4.53035 31.874466  
2002-08-21 07:49:36 51°17.235 2°52.383 21.466702 4.529189 31.866365  
2002-08-21 07:49:41 51°17.247 2°52.361 21.432766 4.529822 31.874948  
2002-08-21 07:49:45 51°17.256 2°52.343 21.523713 4.529928 31.878353  
2002-08-21 07:49:51 51°17.27 2°52.317 21.453859 4.530772 31.88654  
2002-08-21 07:49:56 51°17.282 2°52.294 21.420433 4.530561 31.88797  
2002-08-21 07:50:01 51°17.293 2°52.272 21.420433 4.530561 31.88797  
2002-08-21 07:50:05 51°17.303 2°52.255 21.642463 4.530983 31.895414  
2002-08-21 07:50:11 51°17.317 2°52.228 21.604893 4.531194 31.899136  
2002-08-21 07:50:16 51°17.33 2°52.207 21.504662 4.532038 31.908359  
2002-08-21 07:50:21 51°17.341 2°52.184 21.461549 4.532355 31.914461  
2002-08-21 07:50:27 51°17.355 2°52.157 21.390086 4.531827 31.911855  
2002-08-21 07:50:31 51°17.365 2°52.139 21.390086 4.531827 31.911855  
2002-08-21 07:50:36 51°17.378 2°52.117 21.223086 4.5313 31.911828  
2002-08-21 07:50:41 51°17.39 2°52.095 21.410676 4.531194 31.914093  
2002-08-21 07:50:45 51°17.4 2°52.078 21.372507 4.531511 31.919682  
2002-08-21 07:50:51 51°17.415 2°52.052 21.469833 4.530878 31.917277  
2002-08-21 07:50:56 51°17.428 2°52.031 21.433321 4.5313 31.925248  
2002-08-21 07:51:01 51°17.44 2°52.009 21.433321 4.5313 31.925248  
2002-08-21 07:51:05 51°17.451 2°51.993 21.391276 4.53014 31.922817  
2002-08-21 07:51:11 51°17.466 2°51.967 21.35401 4.529929 31.924254  
2002-08-21 07:51:16 51°17.479 2°51.947 21.447674 4.529401 31.925262  
2002-08-21 07:51:21 51°17.492 2°51.926 21.644993 4.52919 31.927733  
2002-08-21 07:51:27 51°17.508 2°51.903 21.6729 4.52919 31.929284  
2002-08-21 07:51:32 51°17.521 2°51.883 21.6729 4.52919 31.929284  
2002-08-21 07:51:37 51°17.534 2°51.864 21.4403 4.529401 31.930947  
2002-08-21 07:51:41 51°17.544 2°51.848 21.377785 4.529507 31.934364  
2002-08-21 07:51:46 51°17.557 2°51.829 21.303417 4.52919 31.937039  
2002-08-21 07:51:51 51°17.571 2°51.812 21.66294 4.52803 31.93099  
2002-08-21 07:51:56 51°17.584 2°51.792 21.23438 4.527819 31.931395  
2002-08-21 07:52:01 51°17.599 2°51.775 21.23438 4.527819 31.931395  
2002-08-21 07:52:06 51°17.612 2°51.756 21.42892 4.527819 31.934498  
2002-08-21 07:52:12 51°17.629 2°51.736 21.559505 4.528241 31.941966  
2002-08-21 07:52:16 51°17.64 2°51.72 21.329592 4.527081 31.935916  
2002-08-21 07:52:21 51°17.655 2°51.702 21.490677 4.527714 31.94298  
2002-08-21 07:52:25 51°17.665 2°51.687 21.259705 4.527397 31.943071  
2002-08-21 07:52:31 51°17.682 2°51.666 21.259705 4.527397 31.943071  
2002-08-21 07:52:36 51°17.696 2°51.648 21.618222 4.527397 31.945141  
2002-08-21 07:52:41 51°17.711 2°51.63 21.359885 4.52687 31.941497  
2002-08-21 07:52:45 51°17.722 2°51.616 21.356987 4.527081 31.945233  
2002-08-21 07:52:51 51°17.739 2°51.594 21.195917 4.526342 31.939923  
2002-08-21 07:52:56 51°17.752 2°51.576 21.227182 4.526553 31.943141  
2002-08-21 07:53:01 51°17.766 2°51.559 21.227182 4.526553 31.943141  
2002-08-21 07:53:07 51°17.781 2°51.538 21.391792 4.526659 31.945009  
2002-08-21 07:53:12 51°17.795 2°51.52 21.398656 4.525921 31.939699  
2002-08-21 07:53:16 51°17.805 2°51.507 21.427571 4.526659 31.945527  
2002-08-21 07:53:21 51°17.818 2°51.49 21.491429 4.527503 31.953224  
2002-08-21 07:53:26 51°17.832 2°51.473 21.625737 4.527503 31.953742  
2002-08-21 07:53:32 51°17.848 2°51.452 21.625737 4.527503 31.953742  
2002-08-21 07:53:36 51°17.859 2°51.439 21.369292 4.528031 31.957905  
2002-08-21 07:53:41 51°17.872 2°51.422 21.604734 4.52687 31.948228  
2002-08-21 07:53:46 51°17.886 2°51.404 21.444265 4.525815 31.938349  
2002-08-21 07:53:52 51°17.904 2°51.383 21.548936 4.526764 31.943771  
2002-08-21 07:53:56 51°17.915 2°51.369 21.456554 4.527397 31.949802  
2002-08-21 07:54:01 51°17.929 2°51.351 21.456554 4.527397 31.949802  
2002-08-21 07:54:07 51°17.946 2°51.33 21.431616 4.527397 31.94773  
2002-08-21 07:54:11 51°17.958 2°51.316 21.502958 4.526553 31.940035  
2002-08-21 07:54:16 51°17.973 2°51.298 21.346785 4.526237 31.934432  
2002-08-21 07:54:21 51°17.987 2°51.28 21.483386 4.526026 31.929663  
2002-08-21 07:54:25 51°17.998 2°51.265 21.651042 4.526237 31.927706  
2002-08-21 07:54:31 51°18.015 2°51.244 21.651042 4.526237 31.927706  
2002-08-21 07:54:36 51°18.03 2°51.226 21.494639 4.526342 31.924918  
2002-08-21 07:54:41 51°18.044 2°51.21 21.726271 4.525815 31.916104  
2002-08-21 07:54:45 51°18.056 2°51.197 21.649619 4.526131 31.914982  
2002-08-21 07:54:52 51°18.078 2°51.177 21.476887 4.526025 31.9095  
2002-08-21 07:54:56 51°18.09 2°51.165 21.479265 4.524759 31.896937  
2002-08-21 07:55:01 51°18.106 2°51.152 21.479265 4.524759 31.896937  
2002-08-21 07:55:05 51°18.119 2°51.141 21.67697 4.52497 31.892404  
2002-08-21 07:55:12 51°18.142 2°51.125 21.389332 4.523915 31.878415  
2002-08-21 07:55:16 51°18.156 2°51.117 21.45818 4.52381 31.875004  
2002-08-21 07:55:21 51°18.172 2°51.108 21.623127 4.520855 31.847609  
2002-08-21 07:55:25 51°18.185 2°51.102 21.754699 4.520961 31.843804  
2002-08-21 07:55:31 51°18.203 2°51.092 21.754699 4.520961 31.843804  
2002-08-21 07:55:36 51°18.218 2°51.084 21.59524 4.520961 31.841744  
2002-08-21 07:55:41 51°18.232 2°51.075 21.531673 4.520328 31.834185  
2002-08-21 07:55:46 51°18.246 2°51.068 21.533217 4.518745 31.818637  
2002-08-21 07:55:51 51°18.259 2°51.06 21.499908 4.518534 31.814404  
2002-08-21 07:55:56 51°18.273 2°51.053 21.465949 4.517374 31.803211  
2002-08-21 07:56:01 51°18.286 2°51.047 21.465949 4.517374 31.803211  
2002-08-21 07:56:05 51°18.295 2°51.042 21.787574 4.517268 31.801353  
2002-08-21 07:56:11 51°18.307 2°51.035 21.557843 4.51558 31.784983  
2002-08-21 07:56:16 51°18.316 2°51.031 21.460399 4.515791 31.785617  
2002-08-21 07:56:21 51°18.324 2°51.027 21.421226 4.514419 31.773283  
2002-08-21 07:56:27 51°18.33 2°51.024 21.448388 4.513997 31.770476  
2002-08-21 07:56:32 51°18.335 2°51.021 21.448388 4.513997 31.770476  
2002-08-21 07:56:36 51°18.338 2°51.019 21.507831 4.513892 31.769645  
2002-08-21 07:56:41 51°18.342 2°51.017 21.340909 4.513575 31.767668  
2002-08-21 07:56:45 51°18.345 2°51.015 21.464165 4.513786 31.769842  
2002-08-21 07:56:52 51°18.349 2°51.011 21.421821 4.51347 31.770946  
2002-08-21 07:56:57 51°18.353 2°51.009 21.254021 4.513259 31.770313  
2002-08-21 07:57:01 51°18.356 2°51.006 21.254021 4.513259 31.770313  
2002-08-21 07:57:05 51°18.358 2°51.004 21.249369 4.513259 31.773395  
2002-08-21 07:57:11 51°18.362 2°51 21.084229 4.512837 31.772641  
2002-08-21 07:57:16 51°18.366 2°50.997 21.17817 4.512943 31.777582  
2002-08-21 07:57:21 51°18.369 2°50.995 21.172957 4.512099 31.777619  
2002-08-21 07:57:25 51°18.372 2°50.993 21.238754 4.513048 31.788181  
2002-08-21 07:57:31 51°18.376 2°50.99 21.238754 4.513048 31.788181  
2002-08-21 07:57:36 51°18.379 2°50.988 21.235931 4.511994 31.785529  
2002-08-21 07:57:41 51°18.382 2°50.987 21.266343 4.511888 31.787784  
2002-08-21 07:57:47 51°18.386 2°50.985 21.229886 4.511783 31.789526  
2002-08-21 07:57:52 51°18.39 2°50.985 21.262686 4.511994 31.793246  
2002-08-21 07:57:56 51°18.392 2°50.985 21.190267 4.510939 31.789051  
2002-08-21 07:58:01 51°18.395 2°50.985 21.190267 4.510939 31.789051  
2002-08-21 07:58:06 51°18.399 2°50.985 21.220938 4.511361 31.79392  
2002-08-21 07:58:11 51°18.402 2°50.987 21.248773 4.511255 31.794633  
2002-08-21 07:58:16 51°18.405 2°50.988 21.214176 4.511044 31.795544  
2002-08-21 07:58:21 51°18.409 2°50.99 21.242889 4.511044 31.796574  
2002-08-21 07:58:27 51°18.413 2°50.993 21.239509 4.510728 31.797169  
2002-08-21 07:58:32 51°18.416 2°50.995 21.239509 4.510728 31.797169  
2002-08-21 07:58:37 51°18.419 2°50.997 21.00716 4.510412 31.796735  
2002-08-21 07:58:41 51°18.421 2°50.999 21.197747 4.510834 31.801606  
2002-08-21 07:58:45 51°18.423 2°51 21.299127 4.510728 31.80335  
2002-08-21 07:58:51 51°18.426 2°51.003 21.163126 4.510306 31.802599  
2002-08-21 07:58:56 51°18.428 2°51.004 21.325581 4.510201 31.804859  
2002-08-21 07:59:01 51°18.43 2°51.006 21.325581 4.510201 31.804859  
2002-08-21 07:59:05 51°18.431 2°51.007 21.159822 4.510517 31.809416  
2002-08-21 07:59:11 51°18.434 2°51.009 21.284227 4.510412 31.811677  
2002-08-21 07:59:16 51°18.435 2°51.009 21.119327 4.510095 31.811243  
2002-08-21 07:59:21 51°18.437 2°51.01 21.281247 4.510517 31.816118  
2002-08-21 07:59:25 51°18.438 2°51.012 21.506286 4.510201 31.814653  
2002-08-21 07:59:32 51°18.44 2°51.013 21.506286 4.510201 31.814653  
2002-08-21 07:59:37 51°18.441 2°51.014 21.312037 4.509568 31.812239  
2002-08-21 07:59:41 51°18.442 2°51.014 21.537811 4.509462 31.81347  
2002-08-21 07:59:46 51°18.443 2°51.014 21.466305 4.509463 31.815533  
2002-08-21 07:59:51 51°18.443 2°51.014 21.300756 4.509779 31.821125  
2002-08-21 07:59:57 51°18.444 2°51.014 21.526565 4.509674 31.821841  
2002-08-21 08:00:01 51°18.444 2°51.015 21.526565 4.509674 31.821841  
2002-08-21 08:00:05 51°18.445 2°51.015 21.328559 4.509674 31.823389  
2002-08-21 08:00:12 51°18.445 2°51.015 21.386039 4.509885 31.825053  
2002-08-21 08:00:17 51°18.445 2°51.015 21.348333 4.509252 31.823156  
2002-08-21 08:00:21 51°18.445 2°51.015 21.315811 4.509674 31.828034  
2002-08-21 08:00:25 51°18.445 2°51.015 21.246308 4.50999 31.832597  
2002-08-21 08:00:32 51°18.445 2°51.015 21.246308 4.50999 31.832597  
2002-08-21 08:00:36 51°18.445 2°51.015 21.275683 4.509463 31.832565  
2002-08-21 08:00:41 51°18.445 2°51.014 21.307231 4.509568 31.832881  
2002-08-21 08:00:46 51°18.445 2°51.014 21.334476 4.509463 31.837213  
2002-08-21 08:00:52 51°18.445 2°51.014 21.236964 4.509569 31.840629  
2002-08-21 08:00:57 51°18.445 2°51.014 21.332888 4.509463 31.841863  
2002-08-21 08:01:01 51°18.445 2°51.014 21.332888 4.509463 31.841863  
2002-08-21 08:01:05 51°18.445 2°51.014 21.657406 4.509569 31.842696  
2002-08-21 08:01:11 51°18.444 2°51.014 21.36318 4.509041 31.842666  
2002-08-21 08:01:16 51°18.444 2°51.014 21.456356 4.509147 31.84505  
2002-08-21 08:01:21 51°18.444 2°51.015 21.389888 4.509252 31.848468  
2002-08-21 08:01:26 51°18.443 2°51.015 21.553449 4.509147 31.848669  
2002-08-21 08:01:32 51°18.443 2°51.015 21.553449 4.509147 31.848669  
2002-08-21 08:01:36 51°18.443 2°51.014 21.288359 4.509041 31.849387  
2002-08-21 08:01:41 51°18.442 2°51.014 21.582816 4.508936 31.848554  
2002-08-21 08:01:45 51°18.442 2°51.014 21.189949 4.509463 31.854788  
2002-08-21 08:01:52 51°18.442 2°51.014 21.190466 4.50883 31.852892  
2002-08-21 08:01:56 51°18.442 2°51.014 21.48406 4.508725 31.852059  
2002-08-21 08:02:01 51°18.442 2°51.014 21.48406 4.508725 31.852059  
2002-08-21 08:02:07 51°18.442 2°51.014 21.417696 4.509041 31.854559  
2002-08-21 08:02:12 51°18.442 2°51.014 21.579057 4.508936 31.856312  
2002-08-21 08:02:17 51°18.442 2°51.014 21.54664 4.508725 31.856197  
2002-08-21 08:02:21 51°18.442 2°51.014 21.255492 4.509041 31.859215  
2002-08-21 08:02:25 51°18.442 2°51.014 21.676852 4.509147 31.860048  
2002-08-21 08:02:32 51°18.441 2°51.014 21.676852 4.509147 31.860048  
2002-08-21 08:02:36 51°18.441 2°51.014 21.188397 4.508619 31.856399  
2002-08-21 08:02:41 51°18.441 2°51.014 21.38461 4.508092 31.853266  
2002-08-21 08:02:45 51°18.44 2°51.014 21.254418 4.508936 31.859934  
2002-08-21 08:02:51 51°18.44 2°51.014 21.446644 4.50862 31.857951  
2002-08-21 08:02:56 51°18.44 2°51.014 21.378618 4.508303 31.855968  
2002-08-21 08:03:01 51°18.439 2°51.014 21.378618 4.508303 31.855968  
2002-08-21 08:03:07 51°18.439 2°51.014 21.638509 4.509147 31.861083  
2002-08-21 08:03:12 51°18.439 2°51.014 21.411231 4.508514 31.8566  
2002-08-21 08:03:16 51°18.438 2°51.013 21.476332 4.507987 31.853985  
2002-08-21 08:03:21 51°18.437 2°51.013 21.281406 4.507987 31.856055  
2002-08-21 08:03:27 51°18.436 2°51.013 21.411191 4.509042 31.863355  
2002-08-21 08:03:32 51°18.436 2°51.013 21.411191 4.509042 31.863355  
2002-08-21 08:03:36 51°18.435 2°51.013 21.380761 4.509042 31.865426  
2002-08-21 08:03:41 51°18.435 2°51.014 21.214733 4.508409 31.860942  
2002-08-21 08:03:45 51°18.434 2°51.014 21.408375 4.508514 31.861775  
2002-08-21 08:03:51 51°18.433 2°51.014 21.506207 4.508936 31.865628  
2002-08-21 08:03:56 51°18.432 2°51.014 21.179722 4.508409 31.861977  
2002-08-21 08:04:01 51°18.432 2°51.014 21.179722 4.508409 31.861977  
2002-08-21 08:04:07 51°18.432 2°51.014 21.278664 4.508409 31.860942  
2002-08-21 08:04:12 51°18.431 2°51.014 21.376555 4.508831 31.863759  
2002-08-21 08:04:16 51°18.431 2°51.014 21.37719 4.508303 31.861144  
2002-08-21 08:04:21 51°18.431 2°51.014 21.149909 4.508514 31.862811  
2002-08-21 08:04:25 51°18.431 2°51.014 21.475976 4.50862 31.864162  
2002-08-21 08:04:31 51°18.431 2°51.014 21.475976 4.50862 31.864162  
2002-08-21 08:04:36 51°18.431 2°51.014 21.380841 4.508198 31.861345  
2002-08-21 08:04:41 51°18.431 2°51.014 21.411588 4.508725 31.865513  
2002-08-21 08:04:47 51°18.432 2°51.014 21.34877 4.508303 31.861661  
2002-08-21 08:04:52 51°18.432 2°51.014 21.510168 4.508303 31.862179  
2002-08-21 08:04:57 51°18.433 2°51.014 21.380325 4.50862 31.863644  
2002-08-21 08:05:01 51°18.433 2°51.014 21.380325 4.50862 31.863644  
2002-08-21 08:05:05 51°18.433 2°51.014 21.313864 4.508725 31.86396  
2002-08-21 08:05:11 51°18.433 2°51.014 21.411985 4.508409 31.861459  
2002-08-21 08:05:17 51°18.434 2°51.013 21.379491 4.508198 31.856687  
2002-08-21 08:05:21 51°18.434 2°51.013 21.462421 4.508725 31.860855  
2002-08-21 08:05:26 51°18.434 2°51.013 21.248216 4.509147 31.864706  
2002-08-21 08:05:32 51°18.435 2°51.013 21.248216 4.509147 31.864706  
2002-08-21 08:05:36 51°18.435 2°51.013 21.2477 4.507987 31.856055  
2002-08-21 08:05:41 51°18.435 2°51.012 21.282836 4.508092 31.857924  
2002-08-21 08:05:45 51°18.436 2°51.011 21.410755 4.50862 31.860539  
2002-08-21 08:05:51 51°18.437 2°51.01 21.475183 4.508198 31.859792  
2002-08-21 08:05:57 51°18.438 2°51.009 21.182349 4.508409 31.859907  
2002-08-21 08:06:01 51°18.438 2°51.009 21.182349 4.508409 31.859907  
2002-08-21 08:06:07 51°18.439 2°51.008 21.344363 4.50862 31.861574  
2002-08-21 08:06:11 51°18.44 2°51.007 21.506523 4.508514 31.861775  
2002-08-21 08:06:16 51°18.441 2°51.006 21.440736 4.508409 31.861459  
2002-08-21 08:06:21 51°18.441 2°51.004 21.406709 4.508303 31.861144  
2002-08-21 08:06:27 51°18.443 2°51.003 21.309932 4.508303 31.861144  
2002-08-21 08:06:32 51°18.443 2°51.001 21.309932 4.508303 31.861144  
2002-08-21 08:06:36 51°18.444 2°51 21.210199 4.508198 31.86031  
2002-08-21 08:06:42 51°18.444 2°50.999 21.502364 4.508198 31.86031  
2002-08-21 08:06:46 51°18.445 2°50.998 21.404646 4.508303 31.863214  
2002-08-21 08:06:51 51°18.445 2°50.996 21.306754 4.508198 31.862381  
2002-08-21 08:06:56 51°18.445 2°50.995 21.469991 4.508198 31.862898  
2002-08-21 08:07:01 51°18.445 2°50.993 21.469991 4.508198 31.862898  
2002-08-21 08:07:07 51°18.445 2°50.991 21.43467 4.508092 31.8631  
2002-08-21 08:07:11 51°18.445 2°50.99 21.141628 4.508303 31.865285  
2002-08-21 08:07:17 51°18.445 2°50.989 21.529376 4.507987 31.862784  
2002-08-21 08:07:21 51°18.446 2°50.987 21.400877 4.508198 31.865487  
2002-08-21 08:07:26 51°18.446 2°50.986 21.172201 4.508198 31.864969  
2002-08-21 08:07:32 51°18.445 2°50.984 21.172201 4.508198 31.864969  
2002-08-21 08:07:37 51°18.444 2°50.982 21.301709 4.507776 31.863188  
2002-08-21 08:07:41 51°18.444 2°50.981 21.303258 4.508092 31.865171  
2002-08-21 08:07:47 51°18.444 2°50.979 21.298491 4.508409 31.867672  
2002-08-21 08:07:52 51°18.443 2°50.978 21.204033 4.508198 31.867558  
2002-08-21 08:07:57 51°18.443 2°50.976 21.299723 4.508198 31.867558  
2002-08-21 08:08:01 51°18.443 2°50.975 21.299723 4.508198 31.867558  
2002-08-21 08:08:05 51°18.442 2°50.974 21.329909 4.508092 31.867243  
2002-08-21 08:08:12 51°18.442 2°50.972 21.525693 4.50862 31.87193  
2002-08-21 08:08:16 51°18.442 2°50.972 21.394411 4.508514 31.87265  
2002-08-21 08:08:21 51°18.441 2°50.971 21.359448 4.508725 31.874836  
2002-08-21 08:08:27 51°18.441 2°50.97 21.492975 4.508725 31.875354  
2002-08-21 08:08:32 51°18.44 2°50.969 21.492975 4.508725 31.875354  
2002-08-21 08:08:37 51°18.44 2°50.969 21.196076 4.508725 31.875872  
2002-08-21 08:08:41 51°18.44 2°50.969 21.521179 4.508514 31.874204  
2002-08-21 08:08:45 51°18.439 2°50.969 21.259149 4.508725 31.875872  
2002-08-21 08:08:52 51°18.439 2°50.969 21.358377 4.508725 31.87639  
2002-08-21 08:08:56 51°18.439 2°50.968 21.290942 4.509147 31.880244  
2002-08-21 08:09:01 51°18.438 2°50.968 21.290942 4.509147 31.880244  
2002-08-21 08:09:07 51°18.438 2°50.968 21.3579 4.50862 31.876592  
2002-08-21 08:09:12 51°18.438 2°50.968 21.454057 4.508725 31.878463  
2002-08-21 08:09:16 51°18.437 2°50.968 21.193848 4.509147 31.882317  
2002-08-21 08:09:21 51°18.437 2°50.969 21.32566 4.50862 31.879183  
2002-08-21 08:09:27 51°18.437 2°50.969 21.290863 4.508831 31.880333  
2002-08-21 08:09:32 51°18.437 2°50.969 21.290863 4.508831 31.880333  
2002-08-21 08:09:37 51°18.436 2°50.969 21.288558 4.509042 31.882519  
2002-08-21 08:09:41 51°18.436 2°50.969 21.319743 4.508303 31.877718  
2002-08-21 08:09:47 51°18.436 2°50.969 21.189312 4.509042 31.883556  
2002-08-21 08:09:52 51°18.436 2°50.969 21.221336 4.508936 31.88324  
2002-08-21 08:09:56 51°18.436 2°50.969 21.122991 4.509147 31.884909  
2002-08-21 08:10:01 51°18.435 2°50.97 21.122991 4.509147 31.884909  
2002-08-21 08:10:07 51°18.434 2°50.97 21.188397 4.509358 31.886058  
2002-08-21 08:10:11 51°18.434 2°50.97 21.252669 4.508831 31.883443  
2002-08-21 08:10:17 51°18.434 2°50.97 21.512425 4.508936 31.885314  
2002-08-21 08:10:21 51°18.433 2°50.97 21.15401 4.508936 31.885314  
2002-08-21 08:10:26 51°18.433 2°50.97 21.217915 4.508831 31.884998  
2002-08-21 08:10:31 51°18.433 2°50.97 21.217915 4.508831 31.884998  
2002-08-21 08:10:36 51°18.433 2°50.97 21.15401 4.508831 31.88448  
2002-08-21 08:10:41 51°18.433 2°50.971 21.316843 4.508936 31.884795  
2002-08-21 08:10:47 51°18.432 2°50.971 21.251119 4.509042 31.886666  
2002-08-21 08:10:52 51°18.432 2°50.972 21.414721 4.509042 31.887185  
2002-08-21 08:10:56 51°18.432 2°50.972 21.316367 4.508198 31.882067  
2002-08-21 08:11:01 51°18.432 2°50.972 21.316367 4.508198 31.882067  
2002-08-21 08:11:07 51°18.431 2°50.972 21.252192 4.509042 31.888222  
2002-08-21 08:11:12 51°18.431 2°50.973 21.316565 4.508726 31.885719  
2002-08-21 08:11:16 51°18.431 2°50.973 21.478274 4.508937 31.887388  
2002-08-21 08:11:21 51°18.431 2°50.973 21.152497 4.509253 31.88989  
2002-08-21 08:11:25 51°18.431 2°50.973 21.249131 4.508831 31.887591  
2002-08-21 08:11:31 51°18.43 2°50.973 21.249131 4.508831 31.887591  
2002-08-21 08:11:37 51°18.43 2°50.973 21.054536 4.509253 31.890927  
2002-08-21 08:11:41 51°18.43 2°50.973 21.379571 4.508515 31.884569  
2002-08-21 08:11:47 51°18.429 2°50.974 21.248853 4.508937 31.888425  
2002-08-21 08:11:52 51°18.429 2°50.974 21.216881 4.509253 31.891446  
2002-08-21 08:11:57 51°18.429 2°50.974 21.215927 4.508726 31.886756  
2002-08-21 08:12:01 51°18.429 2°50.974 21.215927 4.508726 31.886756  
2002-08-21 08:12:07 51°18.429 2°50.974 21.249966 4.508198 31.884141  
2002-08-21 08:12:12 51°18.429 2°50.975 21.052582 4.508937 31.888943  
2002-08-21 08:12:16 51°18.428 2°50.975 21.248137 4.508937 31.889462  
2002-08-21 08:12:21 51°18.428 2°50.975 21.182587 4.50862 31.886959  
2002-08-21 08:12:27 51°18.427 2°50.975 21.247302 4.508831 31.889146  
2002-08-21 08:12:32 51°18.427 2°50.976 21.247302 4.508831 31.889146  
2002-08-21 08:12:36 51°18.427 2°50.975 21.441331 4.50862 31.887478  
2002-08-21 08:12:41 51°18.427 2°50.975 21.148516 4.508726 31.88883  
2002-08-21 08:12:47 51°18.427 2°50.975 21.537177 4.508515 31.886643  
2002-08-21 08:12:52 51°18.426 2°50.975 21.180399 4.508515 31.88768  
2002-08-21 08:12:57 51°18.426 2°50.976 21.178608 4.508304 31.887049  
2002-08-21 08:13:01 51°18.426 2°50.976 21.178608 4.508304 31.887049  
2002-08-21 08:13:07 51°18.425 2°50.976 21.211392 4.50862 31.888515  
2002-08-21 08:13:12 51°18.425 2°50.976 21.375721 4.509359 31.894355  
2002-08-21 08:13:17 51°18.424 2°50.976 21.245632 4.508831 31.891739  
2002-08-21 08:13:21 51°18.424 2°50.976 21.245791 4.508937 31.892055  
2002-08-21 08:13:26 51°18.424 2°50.976 21.345594 4.508304 31.888086  
2002-08-21 08:13:31 51°18.423 2°50.976 21.345594 4.508304 31.888086  
2002-08-21 08:13:37 51°18.423 2°50.976 21.212983 4.509781 31.898211  
2002-08-21 08:13:41 51°18.423 2°50.977 21.117654 4.508409 31.888921  
2002-08-21 08:13:45 51°18.423 2°50.976 21.246467 4.50862 31.890589  
2002-08-21 08:13:51 51°18.423 2°50.977 21.085265 4.508093 31.886418  
2002-08-21 08:13:56 51°18.422 2°50.977 21.41012 4.508409 31.888402  
2002-08-21 08:14:01 51°18.422 2°50.977 21.41012 4.508409 31.888402  
2002-08-21 08:14:05 51°18.422 2°50.977 21.377547 4.508198 31.886733  
2002-08-21 08:14:12 51°18.421 2°50.977 21.248455 4.508198 31.885696  
2002-08-21 08:14:17 51°18.421 2°50.978 21.34603 4.508304 31.887568  
2002-08-21 08:14:21 51°18.42 2°50.978 21.380483 4.508198 31.886733  
2002-08-21 08:14:26 51°18.42 2°50.978 21.250045 4.508093 31.883825  
2002-08-21 08:14:31 51°18.42 2°50.978 21.250045 4.508093 31.883825  
2002-08-21 08:14:36 51°18.42 2°50.979 21.185015 4.508198 31.886215  
2002-08-21 08:14:41 51°18.419 2°50.979 21.217199 4.508093 31.884343  
2002-08-21 08:14:47 51°18.418 2°50.979 21.088373 4.508198 31.884659  
2002-08-21 08:14:52 51°18.418 2°50.979 21.252669 4.508093 31.884343  
2002-08-21 08:14:56 51°18.417 2°50.98 21.349723 4.508831 31.888109  
2002-08-21 08:15:01 51°18.417 2°50.98 21.349723 4.508831 31.888109  
2002-08-21 08:15:05 51°18.417 2°50.981 21.51195 4.508198 31.884141  
2002-08-21 08:15:12 51°18.416 2°50.981 21.120881 4.508409 31.885291  
2002-08-21 08:15:16 51°18.416 2°50.981 21.349484 4.507882 31.880601  
2002-08-21 08:15:21 51°18.416 2°50.981 21.186726 4.507987 31.87988  
2002-08-21 08:15:27 51°18.416 2°50.982 21.349723 4.507882 31.878527  
2002-08-21 08:15:32 51°18.415 2°50.982 21.349723 4.507882 31.878527  
2002-08-21 08:15:37 51°18.415 2°50.982 21.447318 4.507987 31.880398  
2002-08-21 08:15:41 51°18.415 2°50.983 21.381475 4.508409 31.884254  
2002-08-21 08:15:47 51°18.415 2°50.983 21.349723 4.507987 31.880398  
2002-08-21 08:15:52 51°18.415 2°50.983 21.284585 4.50862 31.884885  
2002-08-21 08:15:56 51°18.414 2°50.983 21.448467 4.508304 31.882901  
2002-08-21 08:16:01 51°18.414 2°50.983 21.448467 4.508304 31.882901  
2002-08-21 08:16:05 51°18.414 2°50.984 21.089369 4.508515 31.884569  
2002-08-21 08:16:12 51°18.414 2°50.984 21.187482 4.50862 31.883848  
2002-08-21 08:16:17 51°18.414 2°50.984 21.609639 4.508198 31.881548  
2002-08-21 08:16:21 51°18.414 2°50.984 21.05609 4.508304 31.882383  
2002-08-21 08:16:25 51°18.414 2°50.984 21.220461 4.50862 31.883848  
2002-08-21 08:16:32 51°18.414 2°50.984 21.220461 4.50862 31.883848  
2002-08-21 08:16:36 51°18.414 2°50.985 21.251834 4.508093 31.880714  
2002-08-21 08:16:41 51°18.414 2°50.985 21.154089 4.508304 31.882383  
2002-08-21 08:16:46 51°18.414 2°50.986 21.154089 4.508515 31.884569  
2002-08-21 08:16:51 51°18.413 2°50.986 21.352859 4.508304 31.881864  
2002-08-21 08:16:57 51°18.412 2°50.986 21.446208 4.508093 31.880714  
2002-08-21 08:17:01 51°18.412 2°50.986 21.446208 4.508093 31.880714  
2002-08-21 08:17:07 51°18.411 2°50.987 21.186407 4.509042 31.887185  
2002-08-21 08:17:12 51°18.41 2°50.988 21.543314 4.508304 31.882383  
2002-08-21 08:17:17 51°18.41 2°50.988 21.477719 4.50862 31.883848  
2002-08-21 08:17:21 51°18.409 2°50.989 21.314698 4.508515 31.883532  
2002-08-21 08:17:25 51°18.409 2°50.989 21.248694 4.508515 31.883014